sensor_id;sensor_type;location;lat;lon;timestamp;P1;durP1;ratioP1;P2;durP2;ratioP2
14778;SDS011;7481;53.750;10.570;2023-09-12T00:02:38;18.33;;;10.85;;
14778;SDS011;7481;53.750;10.570;2023-09-12T00:07:01;12.43;;;10.23;;
14778;SDS011;7481;53.750;10.570;2023-09-12T00:11:23;13.95;;;11.50;;
14778;SDS011;7481;53.750;10.570;2023-09-12T00:15:48;14.32;;;12.18;;
14778;SDS011;7481;53.750;10.570;2023-09-12T00:20:10;18.00;;;12.48;;
14778;SDS011;7481;53.750;10.570;2023-09-12T00:24:33;15.07;;;11.85;;
14778;SDS011;7481;53.750;10.570;2023-09-12T00:28:55;16.40;;;12.35;;
14778;SDS011;7481;53.750;10.570;2023-09-12T00:33:18;14.63;;;12.18;;
14778;SDS011;7481;53.750;10.570;2023-09-12T00:37:41;16.60;;;12.50;;
14778;SDS011;7481;53.750;10.570;2023-09-12T00:42:03;13.05;;;10.75;;
14778;SDS011;7481;53.750;10.570;2023-09-12T00:46:29;16.40;;;12.13;;
14778;SDS011;7481;53.750;10.570;2023-09-12T00:50:51;20.45;;;15.18;;
14778;SDS011;7481;53.750;10.570;2023-09-12T00:55:14;23.70;;;16.08;;
14778;SDS011;7481;53.750;10.570;2023-09-12T00:59:37;21.73;;;18.42;;
14778;SDS011;7481;53.750;10.570;2023-09-12T01:03:59;22.27;;;19.70;;
14778;SDS011;7481;53.750;10.570;2023-09-12T01:08:23;21.58;;;19.35;;
14778;SDS011;7481;53.750;10.570;2023-09-12T01:12:46;24.60;;;20.08;;
14778;SDS011;7481;53.750;10.570;2023-09-12T01:17:08;26.67;;;22.08;;
14778;SDS011;7481;53.750;10.570;2023-09-12T01:26:23;32.10;;;24.77;;
14778;SDS011;7481;53.750;10.570;2023-09-12T01:30:51;33.38;;;25.02;;
14778;SDS011;7481;53.750;10.570;2023-09-12T01:35:14;25.25;;;21.80;;
14778;SDS011;7481;53.750;10.570;2023-09-12T01:39:36;28.35;;;23.15;;
14778;SDS011;7481;53.750;10.570;2023-09-12T01:43:59;33.00;;;25.75;;
14778;SDS011;7481;53.750;10.570;2023-09-12T01:48:23;38.25;;;25.83;;
14778;SDS011;7481;53.750;10.570;2023-09-12T01:52:48;26.85;;;21.92;;
14778;SDS011;7481;53.750;10.570;2023-09-12T01:57:11;28.60;;;22.05;;
14778;SDS011;7481;53.750;10.570;2023-09-12T02:01:34;32.65;;;23.67;;
14778;SDS011;7481;53.750;10.570;2023-09-12T02:05:56;34.05;;;26.42;;
14778;SDS011;7481;53.750;10.570;2023-09-12T02:10:19;31.90;;;25.08;;
14778;SDS011;7481;53.750;10.570;2023-09-12T02:14:41;32.90;;;25.63;;
14778;SDS011;7481;53.750;10.570;2023-09-12T02:19:04;32.13;;;25.38;;
14778;SDS011;7481;53.750;10.570;2023-09-12T02:23:27;34.60;;;24.10;;
14778;SDS011;7481;53.750;10.570;2023-09-12T02:27:49;26.38;;;21.98;;
14778;SDS011;7481;53.750;10.570;2023-09-12T02:32:12;29.83;;;24.88;;
14778;SDS011;7481;53.750;10.570;2023-09-12T02:36:34;33.28;;;26.83;;
14778;SDS011;7481;53.750;10.570;2023-09-12T02:40:57;34.30;;;25.48;;
14778;SDS011;7481;53.750;10.570;2023-09-12T02:45:19;34.70;;;27.02;;
14778;SDS011;7481;53.750;10.570;2023-09-12T02:49:42;33.50;;;28.55;;
14778;SDS011;7481;53.750;10.570;2023-09-12T02:54:04;38.38;;;27.80;;
14778;SDS011;7481;53.750;10.570;2023-09-12T02:58:26;41.83;;;29.15;;
14778;SDS011;7481;53.750;10.570;2023-09-12T03:02:49;37.03;;;28.70;;
14778;SDS011;7481;53.750;10.570;2023-09-12T03:07:11;41.05;;;30.92;;
14778;SDS011;7481;53.750;10.570;2023-09-12T03:11:34;35.58;;;29.48;;
14778;SDS011;7481;53.750;10.570;2023-09-12T03:15:56;36.63;;;26.05;;
14778;SDS011;7481;53.750;10.570;2023-09-12T03:20:19;44.15;;;32.42;;
14778;SDS011;7481;53.750;10.570;2023-09-12T03:24:41;43.72;;;32.83;;
14778;SDS011;7481;53.750;10.570;2023-09-12T03:29:04;46.60;;;30.75;;
14778;SDS011;7481;53.750;10.570;2023-09-12T03:33:26;47.90;;;34.13;;
14778;SDS011;7481;53.750;10.570;2023-09-12T03:37:49;43.38;;;32.58;;
14778;SDS011;7481;53.750;10.570;2023-09-12T03:42:11;49.60;;;34.80;;
14778;SDS011;7481;53.750;10.570;2023-09-12T03:46:34;40.45;;;31.25;;
14778;SDS011;7481;53.750;10.570;2023-09-12T03:50:56;52.13;;;37.33;;
14778;SDS011;7481;53.750;10.570;2023-09-12T03:55:18;53.20;;;37.00;;
14778;SDS011;7481;53.750;10.570;2023-09-12T03:59:41;63.75;;;40.55;;
14778;SDS011;7481;53.750;10.570;2023-09-12T04:04:03;63.70;;;41.10;;
14778;SDS011;7481;53.750;10.570;2023-09-12T04:08:26;62.10;;;40.97;;
14778;SDS011;7481;53.750;10.570;2023-09-12T04:12:49;60.22;;;39.70;;
14778;SDS011;7481;53.750;10.570;2023-09-12T04:17:11;56.17;;;36.17;;
14778;SDS011;7481;53.750;10.570;2023-09-12T04:21:33;58.95;;;39.78;;
14778;SDS011;7481;53.750;10.570;2023-09-12T04:25:56;59.10;;;40.25;;
14778;SDS011;7481;53.750;10.570;2023-09-12T04:30:21;46.00;;;31.05;;
14778;SDS011;7481;53.750;10.570;2023-09-12T04:34:44;50.47;;;38.88;;
14778;SDS011;7481;53.750;10.570;2023-09-12T04:39:07;49.47;;;36.05;;
14778;SDS011;7481;53.750;10.570;2023-09-12T04:43:29;60.03;;;45.78;;
14778;SDS011;7481;53.750;10.570;2023-09-12T04:47:52;48.50;;;34.78;;
14778;SDS011;7481;53.750;10.570;2023-09-12T04:52:15;47.00;;;33.35;;
14778;SDS011;7481;53.750;10.570;2023-09-12T04:56:37;49.53;;;35.97;;
14778;SDS011;7481;53.750;10.570;2023-09-12T05:00:59;55.17;;;35.45;;
14778;SDS011;7481;53.750;10.570;2023-09-12T05:05:22;43.38;;;32.00;;
14778;SDS011;7481;53.750;10.570;2023-09-12T05:09:45;50.80;;;36.90;;
14778;SDS011;7481;53.750;10.570;2023-09-12T05:14:07;50.33;;;35.92;;
14778;SDS011;7481;53.750;10.570;2023-09-12T05:18:30;48.65;;;36.30;;
14778;SDS011;7481;53.750;10.570;2023-09-12T05:22:52;50.90;;;35.53;;
14778;SDS011;7481;53.750;10.570;2023-09-12T05:27:15;50.47;;;36.53;;
14778;SDS011;7481;53.750;10.570;2023-09-12T05:31:37;53.00;;;37.10;;
14778;SDS011;7481;53.750;10.570;2023-09-12T05:36:00;51.33;;;37.30;;
14778;SDS011;7481;53.750;10.570;2023-09-12T05:40:22;51.97;;;36.47;;
14778;SDS011;7481;53.750;10.570;2023-09-12T05:44:45;48.40;;;36.58;;
14778;SDS011;7481;53.750;10.570;2023-09-12T05:49:08;55.28;;;38.95;;
14778;SDS011;7481;53.750;10.570;2023-09-12T05:53:30;52.25;;;35.08;;
14778;SDS011;7481;53.750;10.570;2023-09-12T05:57:53;52.38;;;37.33;;
14778;SDS011;7481;53.750;10.570;2023-09-12T06:02:15;47.28;;;34.83;;
14778;SDS011;7481;53.750;10.570;2023-09-12T06:06:39;44.60;;;32.47;;
14778;SDS011;7481;53.750;10.570;2023-09-12T06:11:01;42.60;;;32.45;;
14778;SDS011;7481;53.750;10.570;2023-09-12T06:15:24;41.63;;;31.02;;
14778;SDS011;7481;53.750;10.570;2023-09-12T06:19:47;40.92;;;31.10;;
14778;SDS011;7481;53.750;10.570;2023-09-12T06:24:12;54.60;;;34.85;;
14778;SDS011;7481;53.750;10.570;2023-09-12T06:28:35;43.90;;;30.10;;
14778;SDS011;7481;53.750;10.570;2023-09-12T06:32:58;42.47;;;33.65;;
14778;SDS011;7481;53.750;10.570;2023-09-12T06:37:21;47.95;;;33.83;;
14778;SDS011;7481;53.750;10.570;2023-09-12T06:41:45;48.22;;;35.63;;
14778;SDS011;7481;53.750;10.570;2023-09-12T06:46:07;48.08;;;33.10;;
14778;SDS011;7481;53.750;10.570;2023-09-12T06:50:30;49.17;;;34.55;;
14778;SDS011;7481;53.750;10.570;2023-09-12T06:54:56;47.17;;;33.33;;
14778;SDS011;7481;53.750;10.570;2023-09-12T06:59:19;44.33;;;32.95;;
14778;SDS011;7481;53.750;10.570;2023-09-12T07:03:42;46.60;;;33.78;;
14778;SDS011;7481;53.750;10.570;2023-09-12T07:08:06;47.67;;;34.50;;
14778;SDS011;7481;53.750;10.570;2023-09-12T07:12:28;50.20;;;35.08;;
14778;SDS011;7481;53.750;10.570;2023-09-12T07:16:51;44.00;;;31.98;;
14778;SDS011;7481;53.750;10.570;2023-09-12T07:21:13;50.35;;;34.60;;
14778;SDS011;7481;53.750;10.570;2023-09-12T07:25:39;47.58;;;33.75;;
14778;SDS011;7481;53.750;10.570;2023-09-12T07:30:03;46.70;;;34.13;;
14778;SDS011;7481;53.750;10.570;2023-09-12T07:34:26;45.65;;;34.03;;
14778;SDS011;7481;53.750;10.570;2023-09-12T07:38:48;42.63;;;31.90;;
14778;SDS011;7481;53.750;10.570;2023-09-12T07:43:11;42.28;;;30.98;;
14778;SDS011;7481;53.750;10.570;2023-09-12T07:47:33;46.95;;;32.78;;
14778;SDS011;7481;53.750;10.570;2023-09-12T07:51:56;43.20;;;33.65;;
14778;SDS011;7481;53.750;10.570;2023-09-12T07:56:19;47.67;;;33.60;;
14778;SDS011;7481;53.750;10.570;2023-09-12T08:00:41;43.95;;;32.40;;
14778;SDS011;7481;53.750;10.570;2023-09-12T08:05:04;43.72;;;31.08;;
14778;SDS011;7481;53.750;10.570;2023-09-12T08:09:36;43.70;;;31.35;;
14778;SDS011;7481;53.750;10.570;2023-09-12T08:14:09;49.67;;;36.30;;
14778;SDS011;7481;53.750;10.570;2023-09-12T08:18:32;40.90;;;30.35;;
14778;SDS011;7481;53.750;10.570;2023-09-12T08:22:54;44.20;;;33.40;;
14778;SDS011;7481;53.750;10.570;2023-09-12T08:27:17;42.45;;;33.05;;
14778;SDS011;7481;53.750;10.570;2023-09-12T08:31:39;43.45;;;32.47;;
14778;SDS011;7481;53.750;10.570;2023-09-12T08:36:02;53.55;;;35.33;;
14778;SDS011;7481;53.750;10.570;2023-09-12T08:40:25;46.72;;;32.85;;
14778;SDS011;7481;53.750;10.570;2023-09-12T08:44:47;45.42;;;32.22;;
14778;SDS011;7481;53.750;10.570;2023-09-12T08:49:10;45.20;;;32.35;;
14778;SDS011;7481;53.750;10.570;2023-09-12T08:53:33;46.70;;;33.83;;
14778;SDS011;7481;53.750;10.570;2023-09-12T08:57:57;47.72;;;32.20;;
14778;SDS011;7481;53.750;10.570;2023-09-12T09:02:20;44.17;;;31.02;;
14778;SDS011;7481;53.750;10.570;2023-09-12T09:06:43;43.67;;;31.88;;
14778;SDS011;7481;53.750;10.570;2023-09-12T09:11:06;43.55;;;32.50;;
14778;SDS011;7481;53.750;10.570;2023-09-12T09:15:29;46.97;;;33.65;;
14778;SDS011;7481;53.750;10.570;2023-09-12T09:19:52;45.38;;;32.67;;
14778;SDS011;7481;53.750;10.570;2023-09-12T09:24:16;45.78;;;32.22;;
14778;SDS011;7481;53.750;10.570;2023-09-12T09:28:39;39.35;;;30.88;;
14778;SDS011;7481;53.750;10.570;2023-09-12T09:33:02;39.47;;;29.55;;
14778;SDS011;7481;53.750;10.570;2023-09-12T09:37:25;38.20;;;29.20;;
14778;SDS011;7481;53.750;10.570;2023-09-12T09:41:47;39.33;;;28.30;;
14778;SDS011;7481;53.750;10.570;2023-09-12T09:46:14;34.70;;;26.98;;
14778;SDS011;7481;53.750;10.570;2023-09-12T09:50:37;30.23;;;24.35;;
14778;SDS011;7481;53.750;10.570;2023-09-12T09:55:00;31.65;;;25.52;;
14778;SDS011;7481;53.750;10.570;2023-09-12T09:59:23;35.08;;;28.23;;
14778;SDS011;7481;53.750;10.570;2023-09-12T10:03:47;31.05;;;27.45;;
14778;SDS011;7481;53.750;10.570;2023-09-12T10:08:10;31.33;;;26.00;;
14778;SDS011;7481;53.750;10.570;2023-09-12T10:12:41;40.20;;;31.00;;
14778;SDS011;7481;53.750;10.570;2023-09-12T10:17:07;43.60;;;33.90;;
14778;SDS011;7481;53.750;10.570;2023-09-12T10:21:31;41.55;;;32.53;;
14778;SDS011;7481;53.750;10.570;2023-09-12T10:25:54;40.97;;;31.92;;
14778;SDS011;7481;53.750;10.570;2023-09-12T10:30:17;39.78;;;32.75;;
14778;SDS011;7481;53.750;10.570;2023-09-12T10:34:41;36.10;;;29.63;;
14778;SDS011;7481;53.750;10.570;2023-09-12T10:39:06;33.63;;;28.15;;
14778;SDS011;7481;53.750;10.570;2023-09-12T10:43:29;37.22;;;28.95;;
14778;SDS011;7481;53.750;10.570;2023-09-12T10:47:53;36.92;;;29.50;;
14778;SDS011;7481;53.750;10.570;2023-09-12T10:52:36;39.15;;;30.70;;
14778;SDS011;7481;53.750;10.570;2023-09-12T10:57:04;32.60;;;27.40;;
14778;SDS011;7481;53.750;10.570;2023-09-12T11:01:27;31.90;;;26.75;;
14778;SDS011;7481;53.750;10.570;2023-09-12T11:05:51;31.13;;;27.75;;
14778;SDS011;7481;53.750;10.570;2023-09-12T11:14:52;31.88;;;26.75;;
14778;SDS011;7481;53.750;10.570;2023-09-12T11:19:20;31.40;;;26.85;;
14778;SDS011;7481;53.750;10.570;2023-09-12T11:23:53;31.83;;;27.25;;
14778;SDS011;7481;53.750;10.570;2023-09-12T11:28:16;29.08;;;25.98;;
14778;SDS011;7481;53.750;10.570;2023-09-12T11:32:41;30.17;;;26.38;;
14778;SDS011;7481;53.750;10.570;2023-09-12T11:37:06;32.97;;;28.15;;
14778;SDS011;7481;53.750;10.570;2023-09-12T11:41:41;28.85;;;25.30;;
14778;SDS011;7481;53.750;10.570;2023-09-12T11:46:03;30.67;;;26.48;;
14778;SDS011;7481;53.750;10.570;2023-09-12T11:50:29;30.45;;;25.48;;
14778;SDS011;7481;53.750;10.570;2023-09-12T11:54:53;30.42;;;26.50;;
14778;SDS011;7481;53.750;10.570;2023-09-12T11:59:15;33.33;;;26.20;;
14778;SDS011;7481;53.750;10.570;2023-09-12T12:03:40;33.92;;;28.23;;
14778;SDS011;7481;53.750;10.570;2023-09-12T12:08:03;32.58;;;27.08;;
14778;SDS011;7481;53.750;10.570;2023-09-12T12:12:29;34.10;;;26.52;;
14778;SDS011;7481;53.750;10.570;2023-09-12T12:16:51;31.25;;;26.25;;
14778;SDS011;7481;53.750;10.570;2023-09-12T12:21:15;30.33;;;26.35;;
14778;SDS011;7481;53.750;10.570;2023-09-12T12:25:37;30.45;;;25.60;;
14778;SDS011;7481;53.750;10.570;2023-09-12T12:30:01;36.13;;;29.27;;
14778;SDS011;7481;53.750;10.570;2023-09-12T12:34:24;35.78;;;28.23;;
14778;SDS011;7481;53.750;10.570;2023-09-12T12:39:06;37.88;;;28.67;;
14778;SDS011;7481;53.750;10.570;2023-09-12T12:43:32;37.20;;;29.33;;
14778;SDS011;7481;53.750;10.570;2023-09-12T12:47:58;35.40;;;28.10;;
14778;SDS011;7481;53.750;10.570;2023-09-12T12:52:22;33.25;;;26.98;;
14778;SDS011;7481;53.750;10.570;2023-09-12T12:56:45;35.65;;;28.45;;
14778;SDS011;7481;53.750;10.570;2023-09-12T13:01:08;35.83;;;30.15;;
14778;SDS011;7481;53.750;10.570;2023-09-12T13:05:31;37.17;;;29.30;;
14778;SDS011;7481;53.750;10.570;2023-09-12T13:09:53;38.50;;;29.77;;
14778;SDS011;7481;53.750;10.570;2023-09-12T13:14:16;37.65;;;31.63;;
14778;SDS011;7481;53.750;10.570;2023-09-12T13:18:41;36.53;;;30.48;;
14778;SDS011;7481;53.750;10.570;2023-09-12T13:23:03;37.20;;;30.52;;
14778;SDS011;7481;53.750;10.570;2023-09-12T13:27:26;38.92;;;31.98;;
14778;SDS011;7481;53.750;10.570;2023-09-12T13:31:48;38.83;;;33.05;;
14778;SDS011;7481;53.750;10.570;2023-09-12T13:36:11;40.03;;;32.33;;
14778;SDS011;7481;53.750;10.570;2023-09-12T13:40:34;38.40;;;32.17;;
14778;SDS011;7481;53.750;10.570;2023-09-12T13:44:56;37.78;;;31.80;;
14778;SDS011;7481;53.750;10.570;2023-09-12T13:49:18;38.72;;;31.98;;
14778;SDS011;7481;53.750;10.570;2023-09-12T13:53:41;35.42;;;29.00;;
14778;SDS011;7481;53.750;10.570;2023-09-12T13:58:04;32.83;;;28.75;;
14778;SDS011;7481;53.750;10.570;2023-09-12T14:02:27;30.50;;;26.73;;
14778;SDS011;7481;53.750;10.570;2023-09-12T14:06:51;31.17;;;26.35;;
14778;SDS011;7481;53.750;10.570;2023-09-12T14:11:14;34.00;;;28.17;;
14778;SDS011;7481;53.750;10.570;2023-09-12T14:15:52;28.75;;;25.00;;
14778;SDS011;7481;53.750;10.570;2023-09-12T14:20:17;27.42;;;23.95;;
14778;SDS011;7481;53.750;10.570;2023-09-12T14:24:39;27.35;;;24.48;;
14778;SDS011;7481;53.750;10.570;2023-09-12T14:29:02;28.95;;;25.55;;
14778;SDS011;7481;53.750;10.570;2023-09-12T14:33:26;27.08;;;24.05;;
14778;SDS011;7481;53.750;10.570;2023-09-12T14:37:49;27.20;;;21.92;;
14778;SDS011;7481;53.750;10.570;2023-09-12T14:42:12;26.13;;;22.90;;
14778;SDS011;7481;53.750;10.570;2023-09-12T14:46:35;21.58;;;19.38;;
14778;SDS011;7481;53.750;10.570;2023-09-12T14:50:57;21.15;;;19.02;;
14778;SDS011;7481;53.750;10.570;2023-09-12T14:55:20;20.55;;;18.25;;
14778;SDS011;7481;53.750;10.570;2023-09-12T14:59:43;20.48;;;18.40;;
14778;SDS011;7481;53.750;10.570;2023-09-12T15:04:06;18.50;;;16.58;;
14778;SDS011;7481;53.750;10.570;2023-09-12T15:08:30;18.67;;;16.67;;
14778;SDS011;7481;53.750;10.570;2023-09-12T15:12:53;17.15;;;15.35;;
14778;SDS011;7481;53.750;10.570;2023-09-12T15:17:17;18.05;;;16.17;;
14778;SDS011;7481;53.750;10.570;2023-09-12T15:21:40;18.08;;;16.10;;
14778;SDS011;7481;53.750;10.570;2023-09-12T15:26:03;19.90;;;17.80;;
14778;SDS011;7481;53.750;10.570;2023-09-12T15:30:25;20.55;;;17.73;;
14778;SDS011;7481;53.750;10.570;2023-09-12T15:34:48;19.95;;;17.58;;
14778;SDS011;7481;53.750;10.570;2023-09-12T15:39:10;20.38;;;18.17;;
14778;SDS011;7481;53.750;10.570;2023-09-12T15:43:33;21.40;;;19.17;;
14778;SDS011;7481;53.750;10.570;2023-09-12T15:47:56;24.70;;;21.58;;
14778;SDS011;7481;53.750;10.570;2023-09-12T15:52:19;22.27;;;19.88;;
14778;SDS011;7481;53.750;10.570;2023-09-12T15:56:41;22.35;;;19.77;;
14778;SDS011;7481;53.750;10.570;2023-09-12T16:01:04;20.55;;;18.52;;
14778;SDS011;7481;53.750;10.570;2023-09-12T16:05:27;18.65;;;16.65;;
14778;SDS011;7481;53.750;10.570;2023-09-12T16:09:49;21.48;;;19.33;;
14778;SDS011;7481;53.750;10.570;2023-09-12T16:14:12;19.83;;;17.73;;
14778;SDS011;7481;53.750;10.570;2023-09-12T16:18:34;22.05;;;17.63;;
14778;SDS011;7481;53.750;10.570;2023-09-12T16:22:59;18.67;;;15.82;;
14778;SDS011;7481;53.750;10.570;2023-09-12T16:27:21;19.60;;;17.48;;
14778;SDS011;7481;53.750;10.570;2023-09-12T16:31:44;18.58;;;16.60;;
14778;SDS011;7481;53.750;10.570;2023-09-12T16:36:06;20.17;;;18.17;;
14778;SDS011;7481;53.750;10.570;2023-09-12T16:40:29;19.15;;;17.15;;
14778;SDS011;7481;53.750;10.570;2023-09-12T16:44:53;22.70;;;20.50;;
14778;SDS011;7481;53.750;10.570;2023-09-12T16:49:16;18.55;;;16.73;;
14778;SDS011;7481;53.750;10.570;2023-09-12T16:53:38;17.48;;;15.63;;
14778;SDS011;7481;53.750;10.570;2023-09-12T16:58:02;17.30;;;15.50;;
14778;SDS011;7481;53.750;10.570;2023-09-12T17:02:24;18.52;;;16.15;;
14778;SDS011;7481;53.750;10.570;2023-09-12T17:06:47;17.55;;;14.90;;
14778;SDS011;7481;53.750;10.570;2023-09-12T17:11:10;16.63;;;14.80;;
14778;SDS011;7481;53.750;10.570;2023-09-12T17:15:32;17.30;;;15.13;;
14778;SDS011;7481;53.750;10.570;2023-09-12T17:19:58;18.48;;;15.93;;
14778;SDS011;7481;53.750;10.570;2023-09-12T17:24:21;17.17;;;15.43;;
14778;SDS011;7481;53.750;10.570;2023-09-12T17:28:43;18.17;;;16.23;;
14778;SDS011;7481;53.750;10.570;2023-09-12T17:33:06;15.93;;;14.32;;
14778;SDS011;7481;53.750;10.570;2023-09-12T17:37:32;16.58;;;14.63;;
14778;SDS011;7481;53.750;10.570;2023-09-12T17:41:54;19.50;;;17.52;;
14778;SDS011;7481;53.750;10.570;2023-09-12T17:46:17;16.77;;;15.10;;
14778;SDS011;7481;53.750;10.570;2023-09-12T17:50:39;17.45;;;15.52;;
14778;SDS011;7481;53.750;10.570;2023-09-12T17:55:02;20.52;;;17.20;;
14778;SDS011;7481;53.750;10.570;2023-09-12T17:59:24;17.75;;;15.88;;
14778;SDS011;7481;53.750;10.570;2023-09-12T18:03:48;18.90;;;16.88;;
14778;SDS011;7481;53.750;10.570;2023-09-12T18:08:11;16.83;;;15.10;;
14778;SDS011;7481;53.750;10.570;2023-09-12T18:12:34;16.67;;;14.90;;
14778;SDS011;7481;53.750;10.570;2023-09-12T18:16:56;19.25;;;17.25;;
14778;SDS011;7481;53.750;10.570;2023-09-12T18:21:19;20.52;;;17.80;;
14778;SDS011;7481;53.750;10.570;2023-09-12T18:25:41;19.55;;;17.48;;
14778;SDS011;7481;53.750;10.570;2023-09-12T18:30:04;18.58;;;16.70;;
14778;SDS011;7481;53.750;10.570;2023-09-12T18:34:27;18.33;;;16.42;;
14778;SDS011;7481;53.750;10.570;2023-09-12T18:38:49;20.60;;;18.50;;
14778;SDS011;7481;53.750;10.570;2023-09-12T18:43:12;17.48;;;15.75;;
14778;SDS011;7481;53.750;10.570;2023-09-12T18:47:37;18.02;;;16.13;;
14778;SDS011;7481;53.750;10.570;2023-09-12T18:52:00;17.42;;;15.50;;
14778;SDS011;7481;53.750;10.570;2023-09-12T18:56:23;17.38;;;15.68;;
14778;SDS011;7481;53.750;10.570;2023-09-12T19:00:45;19.65;;;17.67;;
14778;SDS011;7481;53.750;10.570;2023-09-12T19:05:08;18.38;;;16.60;;
14778;SDS011;7481;53.750;10.570;2023-09-12T19:09:31;19.27;;;17.25;;
14778;SDS011;7481;53.750;10.570;2023-09-12T19:13:53;18.83;;;16.92;;
14778;SDS011;7481;53.750;10.570;2023-09-12T19:18:16;21.42;;;17.52;;
14778;SDS011;7481;53.750;10.570;2023-09-12T19:22:39;17.35;;;15.57;;
14778;SDS011;7481;53.750;10.570;2023-09-12T19:27:01;19.90;;;17.80;;
14778;SDS011;7481;53.750;10.570;2023-09-12T19:31:24;18.75;;;16.42;;
14778;SDS011;7481;53.750;10.570;2023-09-12T19:35:47;20.45;;;16.25;;
14778;SDS011;7481;53.750;10.570;2023-09-12T19:40:10;19.13;;;13.30;;
14778;SDS011;7481;53.750;10.570;2023-09-12T19:44:37;18.98;;;16.98;;
14778;SDS011;7481;53.750;10.570;2023-09-12T19:49:01;16.80;;;15.02;;
14778;SDS011;7481;53.750;10.570;2023-09-12T19:53:24;19.70;;;17.67;;
14778;SDS011;7481;53.750;10.570;2023-09-12T19:57:46;20.02;;;17.92;;
14778;SDS011;7481;53.750;10.570;2023-09-12T20:02:09;18.70;;;14.73;;
14778;SDS011;7481;53.750;10.570;2023-09-12T20:06:33;23.10;;;15.35;;
14778;SDS011;7481;53.750;10.570;2023-09-12T20:10:55;16.80;;;15.10;;
14778;SDS011;7481;53.750;10.570;2023-09-12T20:15:19;17.40;;;15.70;;
14778;SDS011;7481;53.750;10.570;2023-09-12T20:19:43;18.60;;;15.15;;
14778;SDS011;7481;53.750;10.570;2023-09-12T20:24:05;16.90;;;15.20;;
14778;SDS011;7481;53.750;10.570;2023-09-12T20:28:28;15.68;;;14.05;;
14778;SDS011;7481;53.750;10.570;2023-09-12T20:32:58;19.63;;;13.95;;
14778;SDS011;7481;53.750;10.570;2023-09-12T20:37:21;16.10;;;14.40;;
14778;SDS011;7481;53.750;10.570;2023-09-12T20:41:43;24.52;;;13.57;;
14778;SDS011;7481;53.750;10.570;2023-09-12T20:46:05;18.58;;;16.58;;
14778;SDS011;7481;53.750;10.570;2023-09-12T20:50:30;16.65;;;14.85;;
14778;SDS011;7481;53.750;10.570;2023-09-12T20:54:52;16.95;;;13.55;;
14778;SDS011;7481;53.750;10.570;2023-09-12T20:59:15;18.20;;;13.10;;
14778;SDS011;7481;53.750;10.570;2023-09-12T21:03:40;17.90;;;12.90;;
14778;SDS011;7481;53.750;10.570;2023-09-12T21:08:05;16.20;;;12.90;;
14778;SDS011;7481;53.750;10.570;2023-09-12T21:12:27;25.35;;;12.50;;
14778;SDS011;7481;53.750;10.570;2023-09-12T21:16:50;15.20;;;13.60;;
14778;SDS011;7481;53.750;10.570;2023-09-12T21:21:12;21.45;;;15.00;;
14778;SDS011;7481;53.750;10.570;2023-09-12T21:25:35;19.90;;;12.02;;
14778;SDS011;7481;53.750;10.570;2023-09-12T21:29:57;20.83;;;13.30;;
14778;SDS011;7481;53.750;10.570;2023-09-12T21:34:19;16.38;;;13.38;;
14778;SDS011;7481;53.750;10.570;2023-09-12T21:38:42;34.90;;;11.25;;
14778;SDS011;7481;53.750;10.570;2023-09-12T21:43:05;58.35;;;13.93;;
14778;SDS011;7481;53.750;10.570;2023-09-12T21:47:27;15.73;;;9.95;;
14778;SDS011;7481;53.750;10.570;2023-09-12T21:51:50;25.55;;;11.23;;
14778;SDS011;7481;53.750;10.570;2023-09-12T21:56:13;15.43;;;11.70;;
14778;SDS011;7481;53.750;10.570;2023-09-12T22:00:35;21.92;;;12.45;;
14778;SDS011;7481;53.750;10.570;2023-09-12T22:04:58;14.63;;;11.45;;
14778;SDS011;7481;53.750;10.570;2023-09-12T22:09:21;13.57;;;11.38;;
14778;SDS011;7481;53.750;10.570;2023-09-12T22:13:44;14.02;;;10.50;;
14778;SDS011;7481;53.750;10.570;2023-09-12T22:18:07;13.60;;;9.65;;
14778;SDS011;7481;53.750;10.570;2023-09-12T22:22:30;11.25;;;10.10;;
14778;SDS011;7481;53.750;10.570;2023-09-12T22:26:52;12.23;;;11.02;;
14778;SDS011;7481;53.750;10.570;2023-09-12T22:31:15;12.07;;;10.75;;
14778;SDS011;7481;53.750;10.570;2023-09-12T22:35:37;14.77;;;8.68;;
14778;SDS011;7481;53.750;10.570;2023-09-12T22:40:00;16.00;;;9.73;;
14778;SDS011;7481;53.750;10.570;2023-09-12T22:44:22;15.10;;;9.02;;
14778;SDS011;7481;53.750;10.570;2023-09-12T22:48:45;20.45;;;10.88;;
14778;SDS011;7481;53.750;10.570;2023-09-12T22:53:08;12.82;;;9.30;;
14778;SDS011;7481;53.750;10.570;2023-09-12T22:57:31;12.70;;;8.98;;
14778;SDS011;7481;53.750;10.570;2023-09-12T23:01:54;16.13;;;9.90;;
14778;SDS011;7481;53.750;10.570;2023-09-12T23:06:17;20.10;;;9.98;;
14778;SDS011;7481;53.750;10.570;2023-09-12T23:10:39;71.35;;;12.95;;
14778;SDS011;7481;53.750;10.570;2023-09-12T23:15:02;17.42;;;9.55;;
14778;SDS011;7481;53.750;10.570;2023-09-12T23:19:27;13.95;;;10.68;;
14778;SDS011;7481;53.750;10.570;2023-09-12T23:23:50;10.75;;;9.50;;
14778;SDS011;7481;53.750;10.570;2023-09-12T23:28:12;12.18;;;10.85;;
14778;SDS011;7481;53.750;10.570;2023-09-12T23:32:35;13.93;;;12.30;;
14778;SDS011;7481;53.750;10.570;2023-09-12T23:36:58;14.55;;;11.93;;
14778;SDS011;7481;53.750;10.570;2023-09-12T23:41:20;15.32;;;13.82;;
14778;SDS011;7481;53.750;10.570;2023-09-12T23:45:42;15.13;;;13.52;;
14778;SDS011;7481;53.750;10.570;2023-09-12T23:50:05;18.63;;;11.52;;
14778;SDS011;7481;53.750;10.570;2023-09-12T23:54:28;15.77;;;11.07;;
14778;SDS011;7481;53.750;10.570;2023-09-12T23:58:51;21.30;;;13.27;;
